Time;durP1;ratioP1;P1;durP2;ratioP2;P2;SDS_P1;SDS_P2;PMS_P1;PMS_P2;Temp;Humidity;BMP_temperature;BMP_pressure;BME280_temperature;BME280_humidity;BME280_pressure;Samples;Min_cycle;Max_cycle;Signal;HPM_P1;HPM_P2
2023/06/23 00:00:12;;;;;;;22.30;16.90;;;17.00;99.90;;;;;;4893934;29;20076;-72
2023/06/23 00:02:42;;;;;;;20.65;16.40;;;17.00;99.90;;;;;;4889588;29;20036;-72
2023/06/23 00:05:08;;;;;;;19.48;15.73;;;16.90;99.90;;;;;;4893285;29;20040;-72
2023/06/23 00:07:35;;;;;;;22.67;16.42;;;17.00;99.90;;;;;;4892912;29;20051;-72
2023/06/23 00:10:05;;;;;;;24.80;17.73;;;17.00;99.90;;;;;;4873817;29;20056;-72
2023/06/23 00:12:35;;;;;;;24.10;17.10;;;17.00;99.90;;;;;;4893752;29;20091;-72
2023/06/23 00:15:02;;;;;;;27.52;18.10;;;17.00;99.90;;;;;;4892411;29;20079;-72
2023/06/23 00:17:28;;;;;;;22.73;16.50;;;17.00;99.90;;;;;;4894333;29;20080;-72
2023/06/23 00:19:54;;;;;;;25.17;17.48;;;17.00;99.90;;;;;;4889215;29;20069;-72
2023/06/23 00:22:19;;;;;;;26.42;18.15;;;17.00;99.90;;;;;;4891411;29;20048;-73
2023/06/23 00:24:45;;;;;;;26.63;18.48;;;17.00;99.90;;;;;;4894081;29;20056;-72
2023/06/23 00:27:11;;;;;;;27.58;18.95;;;17.00;99.90;;;;;;4908105;29;20052;-73
2023/06/23 00:29:36;;;;;;;28.65;18.60;;;17.00;99.90;;;;;;4894079;29;20040;-72
2023/06/23 00:32:02;;;;;;;28.15;17.88;;;17.00;99.90;;;;;;4905880;29;20056;-73
2023/06/23 00:34:28;;;;;;;26.13;18.80;;;17.00;99.90;;;;;;4878145;29;20044;-73
2023/06/23 00:36:54;;;;;;;25.77;19.23;;;16.90;99.90;;;;;;4893110;29;20040;-72
2023/06/23 00:39:20;;;;;;;26.33;20.48;;;16.90;99.90;;;;;;4888088;29;20048;-73
2023/06/23 00:41:46;;;;;;;27.23;19.88;;;16.90;99.90;;;;;;4892616;29;20071;-72
2023/06/23 00:44:11;;;;;;;29.80;19.25;;;16.90;99.90;;;;;;4890581;29;20056;-72
2023/06/23 00:46:37;;;;;;;30.33;20.33;;;16.90;99.90;;;;;;4890442;29;20084;-73
2023/06/23 00:49:04;;;;;;;29.38;20.17;;;16.90;99.90;;;;;;4889617;29;20047;-72
2023/06/23 00:51:31;;;;;;;23.42;19.70;;;16.90;99.90;;;;;;4891640;29;20052;-72
2023/06/23 00:53:58;;;;;;;25.63;19.38;;;16.90;99.90;;;;;;4890680;29;20526;-73
2023/06/23 00:56:24;;;;;;;29.77;20.45;;;16.90;99.90;;;;;;4890624;29;20039;-73
2023/06/23 00:58:50;;;;;;;29.05;20.63;;;16.90;99.90;;;;;;4907694;29;20722;-73
2023/06/23 01:01:16;;;;;;;28.42;19.75;;;16.90;99.90;;;;;;4889198;29;20048;-73
2023/06/23 01:03:43;;;;;;;26.48;19.83;;;16.90;99.90;;;;;;4892790;29;20093;-73
2023/06/23 01:06:36;;;;;;;22.58;17.77;;;16.90;99.90;;;;;;4886604;29;20083;-71
2023/06/23 01:09:15;;;;;;;23.58;17.23;;;16.80;99.90;;;;;;4908636;29;20044;-73
2023/06/23 01:11:57;;;;;;;20.70;15.70;;;16.90;99.90;;;;;;4887946;29;20056;-72
2023/06/23 01:14:30;;;;;;;21.38;15.82;;;16.80;99.90;;;;;;4890276;29;20426;-72
2023/06/23 01:17:24;;;;;;;19.02;14.48;;;16.80;99.90;;;;;;4888879;29;20053;-72
2023/06/23 01:20:21;;;;;;;17.50;13.85;;;16.80;99.90;;;;;;4892111;29;20062;-72
2023/06/23 01:23:06;;;;;;;16.92;12.27;;;16.80;99.90;;;;;;4892083;29;20119;-72
2023/06/23 01:25:54;;;;;;;19.15;12.98;;;16.80;99.90;;;;;;4893444;29;20049;-73
2023/06/23 01:28:44;;;;;;;17.08;12.27;;;16.80;99.90;;;;;;4894093;29;20040;-73
2023/06/23 01:31:14;;;;;;;17.50;12.15;;;16.80;99.90;;;;;;4912148;29;20063;-73
2023/06/23 01:33:56;;;;;;;19.13;12.63;;;16.80;99.90;;;;;;4896455;29;20494;-73
2023/06/23 01:36:32;;;;;;;18.63;12.52;;;16.80;99.90;;;;;;4910137;29;20048;-73
2023/06/23 01:39:03;;;;;;;18.33;12.95;;;16.80;99.90;;;;;;4895961;29;20066;-73
2023/06/23 01:41:33;;;;;;;15.75;12.55;;;16.80;99.90;;;;;;4893221;29;20072;-72
2023/06/23 01:44:03;;;;;;;17.60;12.90;;;16.80;99.90;;;;;;4893580;29;20063;-72
2023/06/23 01:46:35;;;;;;;21.38;13.65;;;16.80;99.90;;;;;;4911842;29;20071;-72
2023/06/23 01:49:10;;;;;;;18.23;13.48;;;16.80;99.90;;;;;;4893219;29;20048;-73
2023/06/23 01:51:38;;;;;;;18.88;12.93;;;16.70;99.90;;;;;;4894886;29;20088;-72
2023/06/23 01:54:06;;;;;;;18.40;13.63;;;16.70;99.90;;;;;;4875298;29;20048;-72
2023/06/23 01:56:33;;;;;;;21.50;14.10;;;16.80;99.90;;;;;;4893705;29;20056;-73
2023/06/23 01:59:00;;;;;;;15.98;13.45;;;16.80;99.90;;;;;;4892659;29;20047;-73
2023/06/23 02:01:27;;;;;;;20.55;13.82;;;16.80;99.90;;;;;;4893589;29;20052;-73
2023/06/23 02:03:54;;;;;;;20.05;15.40;;;16.80;99.90;;;;;;4895344;29;20059;-73
2023/06/23 02:06:21;;;;;;;21.98;15.05;;;16.70;99.90;;;;;;4879430;29;20051;-72
2023/06/23 02:08:48;;;;;;;21.60;14.95;;;16.80;99.90;;;;;;4908667;29;20084;-73
2023/06/23 02:11:14;;;;;;;20.80;14.77;;;16.70;99.90;;;;;;4890551;29;20083;-73
2023/06/23 02:13:42;;;;;;;24.05;15.27;;;16.70;99.90;;;;;;4892537;29;20092;-72
2023/06/23 02:16:10;;;;;;;22.00;15.23;;;16.70;99.90;;;;;;4895414;29;20048;-73
2023/06/23 02:18:37;;;;;;;21.33;15.00;;;16.70;99.90;;;;;;4894894;29;20059;-73
2023/06/23 02:21:05;;;;;;;19.80;15.05;;;16.70;99.90;;;;;;4892417;29;20044;-72
2023/06/23 02:23:32;;;;;;;21.63;14.55;;;16.70;99.90;;;;;;4890120;29;20043;-72
2023/06/23 02:26:00;;;;;;;21.40;15.13;;;16.60;99.90;;;;;;4895693;29;20372;-73
2023/06/23 02:28:27;;;;;;;17.13;14.25;;;16.70;99.90;;;;;;4892728;29;20048;-72
2023/06/23 02:30:55;;;;;;;19.35;14.13;;;16.60;99.90;;;;;;4894873;29;20091;-72
2023/06/23 02:33:21;;;;;;;18.25;14.60;;;16.60;99.90;;;;;;4911391;29;20064;-72
2023/06/23 02:35:51;;;;;;;18.83;14.25;;;16.60;99.90;;;;;;4892396;29;20102;-73
2023/06/23 02:38:21;;;;;;;17.02;12.68;;;16.60;99.90;;;;;;4893612;29;20057;-72
2023/06/23 02:40:49;;;;;;;19.73;13.35;;;16.60;99.90;;;;;;4891352;29;20076;-72
2023/06/23 02:43:22;;;;;;;17.95;13.75;;;16.50;99.90;;;;;;4908951;29;20087;-72
2023/06/23 02:45:53;;;;;;;17.10;12.82;;;16.50;99.90;;;;;;4895868;29;20104;-72
2023/06/23 02:48:24;;;;;;;15.20;11.45;;;16.50;99.90;;;;;;4892314;29;20046;-72
2023/06/23 02:50:53;;;;;;;15.43;11.07;;;16.50;99.90;;;;;;4895998;29;20040;-72
2023/06/23 02:53:22;;;;;;;13.98;10.38;;;16.40;99.90;;;;;;4893488;29;20051;-73
2023/06/23 02:55:55;;;;;;;14.38;10.45;;;16.40;99.90;;;;;;4877462;29;20056;-73
2023/06/23 02:58:22;;;;;;;13.25;9.93;;;16.50;99.90;;;;;;4907284;29;20048;-72
2023/06/23 03:00:50;;;;;;;14.15;9.43;;;16.40;99.90;;;;;;4893170;29;20175;-73
2023/06/23 03:03:16;;;;;;;14.05;10.13;;;16.40;99.90;;;;;;4879801;29;20053;-72
2023/06/23 03:05:43;;;;;;;15.23;10.63;;;16.40;99.90;;;;;;4910814;29;20151;-73
2023/06/23 03:08:09;;;;;;;13.85;10.10;;;16.40;99.90;;;;;;4895316;29;20498;-73
2023/06/23 03:10:34;;;;;;;16.20;10.75;;;16.40;99.90;;;;;;4892651;29;20072;-72
2023/06/23 03:13:00;;;;;;;15.38;10.00;;;16.40;99.90;;;;;;4893823;29;20139;-73
2023/06/23 03:15:27;;;;;;;13.55;9.77;;;16.40;99.90;;;;;;4893742;29;20040;-72
2023/06/23 03:17:58;;;;;;;14.63;9.32;;;16.40;99.90;;;;;;4892755;29;20120;-72
2023/06/23 03:20:41;;;;;;;12.45;9.57;;;16.30;99.90;;;;;;4893744;29;20044;-72
2023/06/23 03:23:14;;;;;;;15.98;10.73;;;16.30;99.90;;;;;;4911413;29;20059;-73
2023/06/23 03:25:41;;;;;;;15.68;10.15;;;16.40;99.90;;;;;;4910320;29;20051;-72
2023/06/23 03:28:12;;;;;;;15.55;10.18;;;16.30;99.90;;;;;;4891559;29;20083;-72
2023/06/23 03:30:47;;;;;;;15.38;9.57;;;16.30;99.90;;;;;;4890267;29;20053;-72
2023/06/23 03:33:22;;;;;;;17.10;9.50;;;16.30;99.90;;;;;;4893073;29;20048;-72
2023/06/23 03:35:50;;;;;;;13.20;9.68;;;16.30;99.90;;;;;;4911285;29;20064;-73
2023/06/23 03:38:18;;;;;;;16.38;10.75;;;16.30;99.90;;;;;;4893713;29;20056;-71
2023/06/23 03:41:02;;;;;;;13.30;10.77;;;16.30;99.90;;;;;;4891307;29;20059;-72
2023/06/23 03:43:48;;;;;;;13.73;9.25;;;16.30;99.90;;;;;;4875075;29;20068;-73
2023/06/23 03:46:19;;;;;;;15.02;11.00;;;16.40;99.90;;;;;;4893407;29;20526;-73
2023/06/23 03:48:46;;;;;;;13.70;10.10;;;16.30;99.90;;;;;;4894156;29;20098;-72
2023/06/23 03:51:15;;;;;;;15.63;10.43;;;16.30;99.90;;;;;;4893469;29;20080;-74
2023/06/23 03:53:41;;;;;;;13.68;10.70;;;16.30;99.90;;;;;;4911824;29;20095;-73
2023/06/23 03:56:11;;;;;;;17.15;10.85;;;16.30;99.90;;;;;;4892945;29;20059;-73
2023/06/23 03:58:38;;;;;;;13.60;11.02;;;16.30;99.90;;;;;;4908643;29;20048;-72
2023/06/23 04:01:05;;;;;;;15.82;11.13;;;16.30;99.90;;;;;;4888627;29;20128;-73
2023/06/23 04:03:35;;;;;;;15.77;11.07;;;16.30;99.90;;;;;;4892901;29;20395;-73
2023/06/23 04:06:05;;;;;;;18.33;11.55;;;16.30;99.90;;;;;;4873080;29;20048;-73
2023/06/23 04:08:33;;;;;;;16.23;11.38;;;16.30;99.90;;;;;;4893224;29;20059;-73
2023/06/23 04:11:00;;;;;;;15.50;11.15;;;16.30;99.90;;;;;;4891542;29;20060;-73
2023/06/23 04:13:31;;;;;;;18.65;12.18;;;16.30;99.90;;;;;;4892654;29;20108;-73
2023/06/23 04:15:58;;;;;;;17.33;11.65;;;16.20;99.90;;;;;;4893649;29;20056;-73
2023/06/23 04:18:28;;;;;;;16.30;11.32;;;16.20;99.90;;;;;;4893018;29;20386;-73
2023/06/23 04:20:55;;;;;;;16.45;11.43;;;16.30;99.90;;;;;;4909805;29;20059;-73
2023/06/23 04:23:22;;;;;;;16.27;11.90;;;16.20;99.90;;;;;;4890941;29;20048;-73
2023/06/23 04:25:50;;;;;;;15.52;11.75;;;16.20;99.90;;;;;;4908207;29;20060;-73
2023/06/23 04:28:18;;;;;;;17.80;11.77;;;16.20;99.90;;;;;;4889820;29;20049;-73
2023/06/23 04:30:44;;;;;;;17.25;11.75;;;16.20;99.90;;;;;;4891935;29;20088;-73
2023/06/23 04:33:11;;;;;;;17.50;12.13;;;16.20;99.90;;;;;;4887682;29;20424;-73
2023/06/23 04:35:37;;;;;;;17.55;12.18;;;16.20;99.90;;;;;;4873590;29;20040;-73
2023/06/23 04:38:09;;;;;;;15.07;11.10;;;16.20;99.90;;;;;;4893049;29;20044;-73
2023/06/23 04:40:40;;;;;;;17.67;11.30;;;16.30;99.90;;;;;;4890708;29;20056;-72
2023/06/23 04:43:14;;;;;;;12.98;10.70;;;16.30;99.90;;;;;;4890771;29;20597;-73
2023/06/23 04:46:05;;;;;;;15.85;11.70;;;16.30;99.90;;;;;;4889217;29;20119;-73
2023/06/23 04:48:35;;;;;;;15.60;11.68;;;16.30;99.90;;;;;;4882411;29;20171;-73
2023/06/23 04:51:06;;;;;;;15.82;10.75;;;16.30;99.90;;;;;;4890097;29;20114;-73
2023/06/23 04:53:42;;;;;;;13.98;10.90;;;16.30;99.90;;;;;;4875511;29;20108;-72
2023/06/23 04:56:15;;;;;;;15.80;11.45;;;16.40;99.90;;;;;;4891906;29;20048;-73
2023/06/23 04:58:43;;;;;;;15.38;11.18;;;16.40;99.90;;;;;;4889144;29;20116;-71
2023/06/23 05:01:13;;;;;;;15.73;11.00;;;16.40;99.90;;;;;;4891667;29;20045;-71
2023/06/23 05:03:40;;;;;;;15.20;11.18;;;16.40;99.90;;;;;;4862665;29;20043;-71
2023/06/23 05:06:08;;;;;;;14.10;11.10;;;16.40;99.90;;;;;;4878620;29;20052;-72
2023/06/23 05:08:35;;;;;;;14.60;10.90;;;16.40;99.90;;;;;;4897520;29;20459;-71
2023/06/23 05:11:05;;;;;;;15.52;11.65;;;16.50;99.90;;;;;;4875805;29;20081;-72
2023/06/23 05:13:33;;;;;;;17.90;10.63;;;16.40;99.90;;;;;;4879586;29;20055;-71
2023/06/23 05:16:02;;;;;;;13.60;10.18;;;16.40;99.90;;;;;;4877330;29;20044;-71
2023/06/23 05:18:29;;;;;;;14.98;11.10;;;16.50;99.90;;;;;;4865265;29;20048;-72
2023/06/23 05:20:59;;;;;;;16.15;10.90;;;16.50;99.90;;;;;;4878865;29;20044;-71
2023/06/23 05:23:27;;;;;;;14.60;11.23;;;16.50;99.90;;;;;;4879706;29;20059;-71
2023/06/23 05:25:56;;;;;;;13.10;10.77;;;16.50;99.90;;;;;;4879763;29;20103;-72
2023/06/23 05:28:26;;;;;;;16.27;10.57;;;16.50;99.90;;;;;;4893249;29;20075;-72
2023/06/23 05:30:55;;;;;;;13.88;9.75;;;16.50;99.90;;;;;;4861245;29;20060;-71
2023/06/23 05:33:23;;;;;;;14.63;10.43;;;16.50;99.90;;;;;;4877095;29;20059;-75
2023/06/23 05:35:52;;;;;;;15.77;10.70;;;16.50;99.90;;;;;;4877020;29;20053;-72
2023/06/23 05:38:19;;;;;;;15.63;10.57;;;16.50;99.90;;;;;;4896974;29;20102;-83
2023/06/23 05:40:45;;;;;;;16.05;10.77;;;16.50;99.90;;;;;;4886222;29;20068;-71
2023/06/23 05:43:11;;;;;;;13.60;10.98;;;16.60;99.90;;;;;;4883315;29;20469;-71
2023/06/23 05:45:37;;;;;;;15.43;11.07;;;16.60;99.90;;;;;;4903659;29;20394;-72
2023/06/23 05:48:18;;;;;;;13.20;11.50;;;16.60;99.90;;;;;;4889978;29;20041;-72
2023/06/23 05:50:47;;;;;;;16.58;11.40;;;16.60;99.90;;;;;;4902677;29;20049;-71
2023/06/23 05:53:16;;;;;;;16.23;11.38;;;16.60;99.90;;;;;;4901170;29;20049;-72
2023/06/23 05:55:45;;;;;;;13.88;11.05;;;16.60;99.90;;;;;;4883108;29;20067;-72
2023/06/23 05:58:13;;;;;;;15.43;10.98;;;16.60;99.90;;;;;;4904123;29;20059;-72
2023/06/23 06:01:00;;;;;;;14.68;11.43;;;16.60;99.90;;;;;;4885737;29;20060;-72
2023/06/23 06:03:32;;;;;;;14.80;10.65;;;16.60;99.90;;;;;;4884389;29;20072;-72
2023/06/23 06:06:00;;;;;;;16.77;11.25;;;16.60;99.90;;;;;;4886086;29;20056;-72
2023/06/23 06:08:28;;;;;;;15.68;10.68;;;16.60;99.90;;;;;;4904889;29;20662;-72
2023/06/23 06:10:56;;;;;;;16.75;11.13;;;16.60;99.90;;;;;;4885717;29;20056;-73
2023/06/23 06:13:24;;;;;;;16.83;12.18;;;16.50;99.90;;;;;;4886893;29;20060;-73
2023/06/23 06:15:51;;;;;;;14.77;11.38;;;16.60;99.90;;;;;;4903761;29;20048;-72
2023/06/23 06:18:18;;;;;;;16.15;10.88;;;16.60;99.90;;;;;;4887879;29;20835;-73
2023/06/23 06:20:46;;;;;;;15.43;11.20;;;16.70;99.90;;;;;;4907798;29;20147;-72
2023/06/23 06:23:15;;;;;;;13.75;11.25;;;16.90;99.90;;;;;;4891777;29;20059;-72
2023/06/23 06:25:41;;;;;;;13.82;11.55;;;17.00;99.90;;;;;;4885935;29;20402;-72
2023/06/23 06:28:12;;;;;;;14.75;11.38;;;17.20;99.90;;;;;;4889996;29;20163;-72
2023/06/23 06:30:40;;;;;;;15.30;11.65;;;17.20;99.90;;;;;;4873460;29;20052;-72
2023/06/23 06:33:08;;;;;;;14.15;11.00;;;17.30;99.90;;;;;;4888659;29;20412;-72
2023/06/23 06:35:35;;;;;;;15.73;11.13;;;17.20;99.90;;;;;;4886140;29;20105;-72
2023/06/23 06:38:03;;;;;;;16.10;11.50;;;17.20;99.90;;;;;;4871377;29;20063;-72
2023/06/23 06:40:29;;;;;;;15.98;11.80;;;17.30;99.90;;;;;;4887140;29;20036;-72
2023/06/23 06:42:55;;;;;;;14.63;10.30;;;17.40;99.90;;;;;;4888266;29;20097;-72
2023/06/23 06:45:21;;;;;;;14.15;10.68;;;17.60;99.90;;;;;;4884648;29;20049;-72
2023/06/23 06:47:48;;;;;;;14.88;10.43;;;17.70;99.90;;;;;;4889113;29;20056;-73
2023/06/23 06:50:15;;;;;;;12.48;10.57;;;17.80;99.90;;;;;;4891057;29;20445;-72
2023/06/23 06:52:43;;;;;;;15.93;11.27;;;17.80;99.90;;;;;;4889366;29;20056;-73
2023/06/23 06:55:15;;;;;;;12.07;9.23;;;17.90;99.90;;;;;;4888623;29;20690;-72
2023/06/23 06:57:41;;;;;;;;;;;18.10;99.90;;;;;;4890003;29;20062;-72
2023/06/23 07:00:09;;;;;;;12.77;8.85;;;18.20;99.90;;;;;;4889412;29;19979;-72
2023/06/23 07:02:37;;;;;;;11.23;9.05;;;18.40;99.90;;;;;;4888513;29;20045;-71
2023/06/23 07:05:03;;;;;;;9.93;8.40;;;18.60;99.90;;;;;;4855907;29;20510;-73
2023/06/23 07:07:30;;;;;;;8.82;7.65;;;18.70;99.90;;;;;;4889646;29;20052;-72
2023/06/23 07:09:56;;;;;;;13.18;8.40;;;18.80;99.90;;;;;;4889502;29;20056;-72
2023/06/23 07:12:23;;;;;;;9.98;7.82;;;18.90;99.90;;;;;;4889051;29;20052;-73
2023/06/23 07:14:49;;;;;;;11.00;8.13;;;19.10;99.90;;;;;;4870699;29;20072;-73
2023/06/23 07:17:15;;;;;;;12.23;7.75;;;19.20;99.90;;;;;;4888967;29;20850;-73
2023/06/23 07:19:41;;;;;;;11.48;7.55;;;19.30;99.90;;;;;;4888294;29;20063;-73
2023/06/23 07:22:07;;;;;;;10.52;7.43;;;19.40;99.90;;;;;;4889165;29;20055;-73
2023/06/23 07:24:33;;;;;;;11.63;8.38;;;19.50;99.90;;;;;;4887428;29;20048;-72
2023/06/23 07:26:58;;;;;;;10.10;7.38;;;19.60;99.90;;;;;;4888285;29;20083;-73
2023/06/23 07:29:24;;;;;;;9.35;7.47;;;19.70;99.90;;;;;;4888829;29;20135;-73
2023/06/23 07:31:50;;;;;;;8.35;7.07;;;19.90;99.90;;;;;;4869445;29;20048;-73
2023/06/23 07:34:16;;;;;;;8.20;6.97;;;20.00;99.90;;;;;;4887209;29;20096;-73
2023/06/23 07:36:41;;;;;;;7.85;7.05;;;20.10;99.90;;;;;;4887935;29;20044;-82
2023/06/23 07:39:08;;;;;;;9.98;7.30;;;20.20;99.90;;;;;;4871372;29;20106;-73
2023/06/23 07:41:34;;;;;;;9.50;6.50;;;20.30;99.90;;;;;;4888694;29;20060;-73
2023/06/23 07:44:01;;;;;;;9.27;7.25;;;20.30;99.90;;;;;;4886762;29;20071;-73
2023/06/23 07:46:26;;;;;;;10.48;8.10;;;20.50;99.90;;;;;;4886543;29;20052;-73
2023/06/23 07:48:52;;;;;;;9.15;7.50;;;20.50;99.90;;;;;;4871134;29;20143;-73
2023/06/23 07:51:18;;;;;;;8.45;6.78;;;20.70;99.90;;;;;;4870808;29;20049;-73
2023/06/23 07:53:44;;;;;;;9.10;6.78;;;20.70;99.90;;;;;;4890607;29;20052;-72
2023/06/23 07:56:12;;;;;;;8.75;7.47;;;20.80;99.90;;;;;;4858441;29;20529;-72
2023/06/23 07:58:41;;;;;;;9.20;6.60;;;20.90;99.90;;;;;;4874364;29;20569;-73
2023/06/23 08:01:07;;;;;;;12.07;7.03;;;20.90;99.90;;;;;;4885213;29;20052;-72
2023/06/23 08:03:33;;;;;;;9.02;7.35;;;20.90;99.90;;;;;;4888637;29;20052;-73
2023/06/23 08:05:59;;;;;;;8.88;7.25;;;20.90;99.90;;;;;;4886700;29;20047;-72
2023/06/23 08:08:25;;;;;;;9.63;7.18;;;21.10;99.90;;;;;;4887953;29;20052;-73
2023/06/23 08:10:51;;;;;;;9.45;7.10;;;21.20;99.90;;;;;;4887171;29;20143;-72
2023/06/23 08:13:18;;;;;;;8.02;6.38;;;21.30;99.90;;;;;;4888034;29;20048;-73
2023/06/23 08:15:44;;;;;;;6.95;6.18;;;21.30;99.90;;;;;;4870051;29;20112;-72
2023/06/23 08:18:09;;;;;;;8.20;6.88;;;21.30;99.90;;;;;;4887034;29;20079;-72
2023/06/23 08:20:35;;;;;;;7.88;6.32;;;21.30;99.90;;;;;;4887637;29;20040;-72
2023/06/23 08:23:01;;;;;;;8.85;7.25;;;21.30;99.90;;;;;;4870021;29;20167;-72
2023/06/23 08:25:27;;;;;;;10.65;7.25;;;21.50;99.90;;;;;;4886016;29;20081;-73
2023/06/23 08:27:52;;;;;;;6.93;6.20;;;21.60;99.90;;;;;;4869495;29;20059;-72
2023/06/23 08:30:26;;;;;;;7.13;6.05;;;21.70;99.90;;;;;;4886521;29;20045;-73
2023/06/23 08:32:52;;;;;;;5.93;5.32;;;21.90;99.90;;;;;;4887115;29;20048;-72
2023/06/23 08:35:17;;;;;;;6.53;5.75;;;22.10;99.90;;;;;;4867351;29;20064;-73
2023/06/23 08:37:43;;;;;;;5.80;5.30;;;22.10;99.90;;;;;;4887741;29;20049;-72
2023/06/23 08:40:09;;;;;;;7.35;5.53;;;22.20;99.90;;;;;;4899112;29;20506;-73
2023/06/23 08:42:35;;;;;;;7.03;5.47;;;22.20;99.90;;;;;;4891585;29;20491;-73
2023/06/23 08:45:03;;;;;;;6.00;5.43;;;22.30;99.90;;;;;;4888168;29;20072;-72
2023/06/23 08:47:31;;;;;;;8.48;5.70;;;22.40;99.90;;;;;;4902771;29;20055;-73
2023/06/23 08:49:57;;;;;;;6.55;5.72;;;22.60;99.90;;;;;;4883258;29;20076;-73
2023/06/23 08:52:24;;;;;;;5.40;4.90;;;22.60;99.90;;;;;;4882966;29;20044;-73
2023/06/23 08:54:50;;;;;;;7.80;4.90;;;22.70;99.90;;;;;;4901023;29;20044;-72
2023/06/23 08:57:16;;;;;;;7.78;5.53;;;22.80;99.90;;;;;;4902105;29;20104;-73
2023/06/23 08:59:43;;;;;;;5.13;4.72;;;22.90;99.90;;;;;;4884452;29;20386;-73
2023/06/23 09:02:08;;;;;;;6.10;5.30;;;23.00;99.90;;;;;;4867588;29;20037;-73
2023/06/23 09:04:34;;;;;;;5.93;4.90;;;23.00;99.90;;;;;;4900810;29;20060;-73
2023/06/23 09:07:00;;;;;;;5.25;4.75;;;23.10;99.90;;;;;;4900997;29;20537;-72
2023/06/23 09:09:26;;;;;;;6.65;4.20;;;23.20;99.90;;;;;;4878905;29;20053;-72
2023/06/23 09:11:52;;;;;;;5.13;4.53;;;23.20;99.90;;;;;;4881251;29;20063;-72
2023/06/23 09:14:18;;;;;;;5.80;4.72;;;23.10;99.90;;;;;;4900119;29;20057;-72
2023/06/23 09:16:45;;;;;;;6.70;4.60;;;23.10;99.90;;;;;;4901103;29;20403;-72
2023/06/23 09:19:12;;;;;;;4.82;4.00;;;23.10;99.90;;;;;;4882405;29;20669;-72
2023/06/23 09:21:41;;;;;;;5.25;4.25;;;23.20;99.90;;;;;;4900358;29;20099;-72
2023/06/23 09:24:07;;;;;;;4.60;4.10;;;23.20;99.90;;;;;;4903351;29;20048;-72
2023/06/23 09:26:49;;;;;;;4.85;4.30;;;23.30;99.90;;;;;;4883668;29;20045;-72
2023/06/23 09:29:28;;;;;;;4.72;4.28;;;23.30;99.90;;;;;;4884578;29;20080;-71
2023/06/23 09:31:55;;;;;;;5.75;4.35;;;23.50;99.90;;;;;;4874439;29;20123;-70
2023/06/23 09:34:24;;;;;;;6.10;4.55;;;23.60;99.90;;;;;;4878411;29;20084;-72
2023/06/23 09:36:52;;;;;;;4.40;3.92;;;23.70;99.90;;;;;;4888401;29;20084;-72
2023/06/23 09:39:18;;;;;;;5.30;4.40;;;23.80;99.90;;;;;;4871355;29;20047;-72
2023/06/23 09:41:55;;;;;;;5.75;4.15;;;23.70;99.90;;;;;;4869798;29;20040;-72
2023/06/23 09:44:21;;;;;;;5.30;3.88;;;23.70;99.90;;;;;;4869020;29;20056;-72
2023/06/23 09:46:47;;;;;;;4.68;4.10;;;23.70;99.90;;;;;;4885789;29;20680;-72
2023/06/23 09:49:12;;;;;;;4.60;4.20;;;23.90;99.90;;;;;;4871972;29;20048;-72
2023/06/23 09:51:45;;;;;;;4.55;4.13;;;24.10;99.90;;;;;;4889871;29;20045;-72
2023/06/23 09:54:11;;;;;;;4.93;4.53;;;24.10;99.90;;;;;;4890311;29;20060;-72
2023/06/23 09:56:37;;;;;;;5.18;4.25;;;24.20;99.90;;;;;;4887824;29;20048;-72
2023/06/23 09:59:02;;;;;;;4.50;4.10;;;24.40;99.90;;;;;;4873669;29;20131;-72
2023/06/23 10:01:28;;;;;;;5.07;4.57;;;24.40;99.90;;;;;;4871313;29;20056;-72
2023/06/23 10:03:55;;;;;;;5.45;4.80;;;24.40;99.90;;;;;;4871827;29;20539;-71
2023/06/23 10:06:32;;;;;;;4.95;4.30;;;24.20;99.90;;;;;;4887997;29;20822;-72
2023/06/23 10:08:59;;;;;;;5.60;4.43;;;24.20;99.90;;;;;;4887115;29;20671;-72
2023/06/23 10:11:30;;;;;;;4.53;4.10;;;24.20;99.90;;;;;;4890014;29;20053;-72
2023/06/23 10:13:58;;;;;;;5.75;4.47;;;24.20;99.90;;;;;;4888531;29;20053;-72
2023/06/23 10:16:24;;;;;;;4.38;4.00;;;24.50;99.90;;;;;;4888563;29;20046;-72
2023/06/23 10:18:51;;;;;;;5.78;4.13;;;24.70;99.90;;;;;;4871505;29;20514;-73
2023/06/23 10:21:17;;;;;;;4.93;4.43;;;24.90;99.90;;;;;;4888573;29;20112;-73
2023/06/23 10:23:44;;;;;;;7.20;4.38;;;24.90;99.90;;;;;;4871574;29;20079;-73
2023/06/23 10:26:12;;;;;;;5.15;4.68;;;24.90;99.90;;;;;;4870232;29;20044;-73
2023/06/23 10:28:43;;;;;;;6.05;4.63;;;24.80;99.90;;;;;;4889876;29;20148;-73
2023/06/23 10:31:09;;;;;;;4.68;4.28;;;24.90;99.90;;;;;;4887482;29;20108;-72
2023/06/23 10:33:38;;;;;;;5.20;4.43;;;25.00;99.90;;;;;;4889566;29;20096;-73
2023/06/23 10:36:08;;;;;;;5.95;4.10;;;24.80;99.90;;;;;;4886607;29;20086;-73
2023/06/23 10:38:38;;;;;;;4.75;4.07;;;24.70;99.90;;;;;;4872015;29;20059;-73
2023/06/23 10:41:05;;;;;;;5.27;4.30;;;24.70;99.90;;;;;;4888938;29;20041;-73
2023/06/23 10:43:33;;;;;;;4.45;4.05;;;24.80;99.90;;;;;;4870989;29;20047;-73
2023/06/23 10:46:00;;;;;;;4.30;3.90;;;24.80;99.90;;;;;;4869982;29;20047;-73
2023/06/23 10:48:27;;;;;;;5.55;4.32;;;25.00;99.90;;;;;;4887516;29;20056;-73
2023/06/23 10:50:54;;;;;;;4.35;3.95;;;25.00;99.90;;;;;;4871292;29;20060;-73
2023/06/23 10:53:28;;;;;;;5.25;3.88;;;25.20;99.90;;;;;;4888894;29;20084;-74
2023/06/23 10:55:57;;;;;;;6.65;4.07;;;25.20;99.90;;;;;;4886646;29;20555;-73
2023/06/23 10:58:24;;;;;;;5.63;4.38;;;25.10;93.40;;;;;;4888578;29;20040;-72
2023/06/23 11:00:55;;;;;;;5.70;3.88;;;24.90;98.40;;;;;;4887397;29;20064;-72
2023/06/23 11:03:26;;;;;;;;;;;24.90;97.30;;;;;;4871670;29;20053;-72
2023/06/23 11:05:56;;;;;;;4.03;3.60;;;25.10;99.90;;;;;;4886677;29;19933;-73
2023/06/23 11:08:31;;;;;;;4.60;3.70;;;25.30;96.80;;;;;;4871490;29;20847;-71
2023/06/23 11:11:08;;;;;;;5.70;4.20;;;25.60;95.00;;;;;;4888042;29;20052;-72
2023/06/23 11:13:37;;;;;;;4.82;3.83;;;25.60;91.30;;;;;;4870386;29;20052;-72
2023/06/23 11:16:05;;;;;;;5.30;3.55;;;25.60;89.10;;;;;;4870203;29;20053;-71
2023/06/23 11:18:31;;;;;;;5.43;4.00;;;25.50;87.60;;;;;;4887833;29;20043;-72
2023/06/23 11:21:03;;;;;;;4.13;3.50;;;25.30;83.00;;;;;;4889209;29;21130;-71
2023/06/23 11:23:29;;;;;;;4.38;3.60;;;25.10;84.20;;;;;;4887069;29;20052;-72
2023/06/23 11:25:55;;;;;;;4.25;3.85;;;25.20;91.20;;;;;;4887973;29;20044;-72
2023/06/23 11:28:33;;;;;;;5.43;4.30;;;25.30;92.40;;;;;;4871858;29;20139;-71
2023/06/23 11:31:16;;;;;;;4.50;3.88;;;25.20;94.80;;;;;;4870582;29;20056;-72
2023/06/23 11:33:44;;;;;;;4.28;3.55;;;25.20;99.90;;;;;;4888124;29;20439;-72
2023/06/23 11:36:13;;;;;;;4.18;3.78;;;25.10;99.90;;;;;;4886364;29;20055;-71
2023/06/23 11:38:41;;;;;;;3.80;3.30;;;25.30;99.90;;;;;;4870449;29;20060;-71
2023/06/23 11:41:08;;;;;;;3.70;3.20;;;25.40;95.70;;;;;;4887373;29;20079;-71
2023/06/23 11:43:37;;;;;;;5.20;3.75;;;25.60;95.70;;;;;;4886776;29;20052;-72
2023/06/23 11:46:09;;;;;;;4.10;3.40;;;25.70;90.70;;;;;;4886575;29;20048;-72
2023/06/23 11:48:36;;;;;;;3.92;2.90;;;25.90;92.30;;;;;;4886764;29;20095;-71
2023/06/23 11:51:06;;;;;;;3.38;3.08;;;26.10;81.80;;;;;;4887130;29;20053;-71
2023/06/23 11:53:32;;;;;;;5.20;3.50;;;26.10;73.70;;;;;;4869986;29;20212;-71
2023/06/23 11:55:59;;;;;;;5.82;3.35;;;26.20;76.10;;;;;;4886202;29;20076;-72
2023/06/23 11:58:29;;;;;;;3.95;3.22;;;26.40;76.80;;;;;;4870289;29;20044;-70
2023/06/23 12:00:55;;;;;;;10.02;3.85;;;26.40;74.00;;;;;;4886374;29;20045;-71
2023/06/23 12:03:21;;;;;;;4.53;3.13;;;26.30;72.10;;;;;;4887217;29;20052;-72
2023/06/23 12:05:46;;;;;;;4.45;3.17;;;26.10;71.30;;;;;;4886052;29;20051;-72
2023/06/23 12:08:13;;;;;;;3.40;2.90;;;26.00;70.70;;;;;;4872877;29;20056;-72
2023/06/23 12:10:40;;;;;;;3.30;3.00;;;25.80;68.90;;;;;;4903272;29;20068;-72
2023/06/23 12:13:10;;;;;;;3.75;2.83;;;25.70;67.30;;;;;;4903465;29;20132;-73
2023/06/23 12:15:43;;;;;;;3.88;3.20;;;25.90;70.10;;;;;;4900645;29;20170;-72
2023/06/23 12:18:11;;;;;;;5.20;3.78;;;26.10;70.00;;;;;;4882469;29;20071;-72
2023/06/23 12:20:38;;;;;;;3.90;3.60;;;26.30;70.20;;;;;;4885343;29;20056;-72
2023/06/23 12:23:13;;;;;;;3.03;2.83;;;26.10;66.30;;;;;;4898936;29;20048;-72
2023/06/23 12:25:42;;;;;;;3.47;3.17;;;26.40;69.40;;;;;;4900449;29;20087;-72
2023/06/23 12:28:13;;;;;;;3.05;2.70;;;26.60;67.10;;;;;;4902227;29;20123;-72
2023/06/23 12:30:43;;;;;;;3.80;3.10;;;26.60;65.50;;;;;;4890312;29;20059;-72
2023/06/23 12:33:23;;;;;;;4.90;3.60;;;26.70;65.20;;;;;;4900537;29;20104;-72
2023/06/23 12:35:58;;;;;;;3.28;3.00;;;26.60;62.30;;;;;;4899089;29;20054;-72
2023/06/23 12:38:24;;;;;;;4.30;3.90;;;26.60;62.80;;;;;;4900811;29;20059;-72
2023/06/23 12:40:51;;;;;;;4.07;3.40;;;26.50;62.80;;;;;;4900085;29;20048;-72
2023/06/23 12:43:21;;;;;;;3.70;3.40;;;26.50;63.80;;;;;;4899759;29;20083;-71